Time;durP1;ratioP1;P1;durP2;ratioP2;P2;SDS_P1;SDS_P2;PMS_P1;PMS_P2;Temp;Humidity;BMP_temperature;BMP_pressure;BME280_temperature;BME280_humidity;BME280_pressure;Samples;Min_cycle;Max_cycle;Signal;HPM_P1;HPM_P2
2021/12/24 00:01:38;;;;;;;;;;;7.50;87.20;;;;;;4993513;28;19939;-62
2021/12/24 00:04:04;;;;;;;;;;;7.50;87.20;;;;;;5009350;28;19921;-62
2021/12/24 00:06:30;;;;;;;;;;;7.50;87.20;;;;;;5026333;28;20000;-62
2021/12/24 00:08:55;;;;;;;;;;;7.50;87.20;;;;;;5010161;28;19909;-62
2021/12/24 00:11:21;;;;;;;;;;;7.50;87.20;;;;;;5008644;28;19913;-66
2021/12/24 00:13:49;;;;;;;;;;;7.50;87.20;;;;;;5009932;28;19918;-62
2021/12/24 00:16:21;;;;;;;;;;;7.40;87.10;;;;;;5008273;28;20295;-62
2021/12/24 00:35:13;;;;;;;;;;;7.50;87.20;;;;;;4982715;28;19977;-63
2021/12/24 00:37:39;;;;;;;;;;;7.40;87.30;;;;;;5006318;28;20120;-63
2021/12/24 00:40:18;;;;;;;;;;;7.40;87.30;;;;;;5025530;28;19913;-63
2021/12/24 00:42:45;;;;;;;;;;;7.40;87.40;;;;;;5010731;28;19941;-63
2021/12/24 00:45:11;;;;;;;;;;;7.40;87.50;;;;;;5006934;28;19924;-62
2021/12/24 00:47:36;;;;;;;;;;;7.40;87.40;;;;;;4993259;28;19909;-62
2021/12/24 00:50:06;;;;;;;;;;;7.30;87.40;;;;;;4992333;28;20399;-63
2021/12/24 00:55:13;;;;;;;;;;;7.30;87.50;;;;;;5025478;28;20552;-63
2021/12/24 00:57:40;;;;;;;;;;;7.30;87.40;;;;;;4991920;28;20210;-62
2021/12/24 01:00:07;;;;;;;;;;;7.30;87.40;;;;;;4991350;28;19917;-63
2021/12/24 01:02:33;;;;;;;;;;;7.30;87.50;;;;;;5008856;28;19921;-62
2021/12/24 01:04:58;;;;;;;;;;;7.30;87.60;;;;;;4991306;28;20305;-62
2021/12/24 01:07:24;;;;;;;;;;;7.30;87.70;;;;;;5006841;28;19914;-62
2021/12/24 01:09:49;;;;;;;;;;;7.30;87.70;;;;;;5007487;28;20377;-62
2021/12/24 01:12:15;;;;;;;;;;;7.30;87.80;;;;;;5007929;28;19964;-63
2021/12/24 01:14:40;;;;;;;;;;;7.30;87.90;;;;;;5006363;28;20284;-62
2021/12/24 01:17:26;;;;;;;;;;;7.30;87.80;;;;;;5024625;28;19941;-62
2021/12/24 01:19:57;;;;;;;;;;;7.20;87.80;;;;;;5010047;28;19917;-62
2021/12/24 01:25:26;;;;;;;;;;;7.20;87.90;;;;;;5010259;28;20403;-62
2021/12/24 01:38:20;;;;;;;;;;;7.20;88.10;;;;;;5024457;28;19996;-62
2021/12/24 01:41:03;;;;;;;;;;;7.20;88.20;;;;;;4993239;28;19913;-63
2021/12/24 01:43:29;;;;;;;;;;;7.20;88.10;;;;;;4991993;28;20478;-63
2021/12/24 01:45:55;;;;;;;;;;;7.20;88.10;;;;;;5006424;28;19909;-62
2021/12/24 01:48:21;;;;;;;;;;;7.20;88.10;;;;;;5008254;28;20344;-62
2021/12/24 01:50:47;;;;;;;;;;;7.20;88.10;;;;;;5021955;28;19913;-63
2021/12/24 01:53:13;;;;;;;;;;;7.20;88.10;;;;;;5022161;28;19913;-63
2021/12/24 01:55:38;;;;;;;;;;;7.10;87.90;;;;;;5007215;28;19929;-63
2021/12/24 01:58:04;;;;;;;;;;;7.10;88.20;;;;;;5004540;28;20603;-63
2021/12/24 02:00:30;;;;;;;;;;;7.20;88.10;;;;;;5005503;28;19999;-63
2021/12/24 02:02:56;;;;;;;;;;;7.10;88.00;;;;;;4990942;28;19921;-62
2021/12/24 02:05:21;;;;;;;;;;;7.10;88.10;;;;;;5004847;28;19912;-62
2021/12/24 02:07:47;;;;;;;;;;;7.10;88.00;;;;;;5025455;28;19913;-62
2021/12/24 02:10:12;;;;;;;;;;;7.10;88.10;;;;;;5005907;28;19914;-62
2021/12/24 02:12:38;;;;;;;;;;;7.20;88.00;;;;;;4990283;28;19920;-63
2021/12/24 02:15:06;;;;;;;;;;;7.10;88.10;;;;;;5002279;28;19921;-62
2021/12/24 02:28:36;;;;;;;;;;;7.10;88.20;;;;;;5020624;28;20411;-62
2021/12/24 02:31:02;;;;;;;;;;;7.00;88.10;;;;;;4991796;28;20273;-63
2021/12/24 02:33:27;;;;;;;;;;;6.90;88.10;;;;;;5007150;28;19968;-63
2021/12/24 02:35:53;;;;;;;;;;;7.00;88.20;;;;;;5005514;28;19924;-62
2021/12/24 02:38:18;;;;;;;;;;;7.00;88.30;;;;;;5021928;28;20588;-63
2021/12/24 02:40:44;;;;;;;;;;;7.00;88.30;;;;;;5006225;28;19937;-62
2021/12/24 02:43:13;;;;;;;;;;;7.00;88.40;;;;;;5004758;28;20440;-62
2021/12/24 02:45:41;;;;;;;;;;;7.00;88.30;;;;;;4989576;28;19920;-62
2021/12/24 02:56:01;;;;;;;;;;;6.90;88.40;;;;;;5009339;28;19991;-62
2021/12/24 02:58:26;;;;;;;;;;;7.00;88.50;;;;;;5021301;28;20347;-62
2021/12/24 03:00:52;;;;;;;;;;;6.90;88.40;;;;;;5004910;28;19955;-63
2021/12/24 03:03:17;;;;;;;;;;;7.00;88.40;;;;;;5006256;28;19909;-62
2021/12/24 03:05:43;;;;;;;;;;;6.90;88.40;;;;;;4990035;28;20366;-62
2021/12/24 03:08:08;;;;;;;;;;;6.90;88.40;;;;;;4990660;28;19917;-62
2021/12/24 03:10:36;;;;;;;;;;;6.90;88.40;;;;;;5006085;28;19910;-62
2021/12/24 03:13:01;;;;;;;;;;;6.90;88.40;;;;;;5003990;28;19929;-63
2021/12/24 03:15:27;;;;;;;;;;;6.90;88.40;;;;;;4988760;28;19918;-63
2021/12/24 03:17:56;;;;;;;;;;;6.90;88.40;;;;;;5030751;28;19920;-63
2021/12/24 03:20:21;;;;;;;;;;;6.90;88.40;;;;;;5012001;28;19939;-62
2021/12/24 03:25:27;;;;;;;;;;;6.90;88.50;;;;;;5027697;28;20280;-63
2021/12/24 03:27:53;;;;;;;;;;;6.90;88.50;;;;;;5010935;28;19913;-62
2021/12/24 03:30:18;;;;;;;;;;;6.90;88.50;;;;;;5011710;28;20460;-62
2021/12/24 03:32:44;;;;;;;;;;;6.90;88.50;;;;;;4996758;28;19920;-62
2021/12/24 03:35:09;;;;;;;;;;;6.90;88.50;;;;;;5010915;28;19909;-62
2021/12/24 03:37:35;;;;;;;;;;;6.80;88.40;;;;;;4995072;28;19952;-62
2021/12/24 03:40:00;;;;;;;;;;;6.80;88.50;;;;;;5011309;28;19927;-63
2021/12/24 03:42:26;;;;;;;;;;;6.90;88.50;;;;;;5011851;28;19943;-63
2021/12/24 03:45:05;;;;;;;;;;;6.90;88.60;;;;;;5010526;28;20008;-63
2021/12/24 03:47:36;;;;;;;;;;;6.90;88.50;;;;;;5012722;28;19963;-62
2021/12/24 03:50:07;;;;;;;;;;;6.90;88.50;;;;;;5011292;28;19917;-62
2021/12/24 03:55:17;;;;;;;;;;;6.90;88.50;;;;;;5027832;28;19924;-62
2021/12/24 03:57:43;;;;;;;;;;;6.90;88.60;;;;;;5010659;28;19917;-62
2021/12/24 04:00:10;;;;;;;;;;;6.90;88.60;;;;;;5010392;28;20016;-62
2021/12/24 04:02:35;;;;;;;;;;;6.90;88.50;;;;;;4994546;28;19923;-62
2021/12/24 04:05:01;;;;;;;;;;;6.80;88.40;;;;;;5011769;28;19925;-62
2021/12/24 04:07:26;;;;;;;;;;;6.90;88.50;;;;;;5011934;28;19913;-63
2021/12/24 04:10:30;;;;;;;;;;;6.90;88.60;;;;;;4995336;28;20260;-62
2021/12/24 04:12:37;;;;;;;;;;;6.90;88.50;;;;;;5014653;28;19932;-62
2021/12/24 04:15:03;;;;;;;;;;;6.80;88.60;;;;;;5011142;28;19913;-62
2021/12/24 04:17:34;;;;;;;;;;;6.80;88.50;;;;;;5012350;28;19909;-63
2021/12/24 04:25:12;;;;;;;;;;;7.00;88.60;;;;;;5015570;28;20006;-61
2021/12/24 04:27:38;;;;;;;;;;;6.80;88.60;;;;;;5008630;28;20349;-62
2021/12/24 04:30:13;;;;;;;;;;;6.80;88.70;;;;;;5023670;28;19923;-62
2021/12/24 04:35:20;;;;;;;;;;;6.80;88.60;;;;;;5009178;28;19921;-62
2021/12/24 04:51:28;;;;;;;;;;;6.70;88.90;;;;;;5024688;28;20020;-62
2021/12/24 05:02:35;;;;;;;;;;;6.70;89.10;;;;;;5010817;28;19935;-63
2021/12/24 05:05:20;;;;;;;;;;;6.70;89.10;;;;;;4996589;28;19909;-63
2021/12/24 05:10:28;;;;;;;;;;;6.70;89.10;;;;;;5025449;28;19917;-62
2021/12/24 05:12:54;;;;;;;;;;;6.70;89.00;;;;;;5006400;28;20012;-62
2021/12/24 05:15:20;;;;;;;;;;;6.70;89.20;;;;;;4990204;28;19992;-63
2021/12/24 05:23:07;;;;;;;;;;;6.70;89.10;;;;;;5011212;28;19976;-62
2021/12/24 05:25:34;;;;;;;;;;;6.70;89.10;;;;;;5008577;28;19917;-62
2021/12/24 05:28:00;;;;;;;;;;;6.70;89.00;;;;;;5022431;28;19917;-62
2021/12/24 05:30:25;;;;;;;;;;;6.70;89.20;;;;;;5004978;28;19990;-62
2021/12/24 05:32:51;;;;;;;;;;;6.70;89.10;;;;;;5007428;28;19947;-62
2021/12/24 05:35:16;;;;;;;;;;;6.70;89.20;;;;;;5006937;28;19909;-62
2021/12/24 05:37:42;;;;;;;;;;;6.70;89.20;;;;;;4991397;28;20254;-63
2021/12/24 05:40:07;;;;;;;;;;;6.70;89.10;;;;;;5004943;28;19921;-62
2021/12/24 05:42:33;;;;;;;;;;;6.70;89.10;;;;;;5007161;28;20065;-62
2021/12/24 05:45:04;;;;;;;;;;;6.70;89.10;;;;;;5005930;28;19989;-62
2021/12/24 05:47:29;;;;;;;;;;;6.70;89.10;;;;;;5007954;28;20345;-63
2021/12/24 05:49:55;;;;;;;;;;;6.70;89.10;;;;;;4991433;28;20035;-62
2021/12/24 05:52:20;;;;;;;;;;;6.70;89.10;;;;;;5022836;28;20019;-62
2021/12/24 05:54:46;;;;;;;;;;;6.70;89.00;;;;;;5006583;28;19916;-62
2021/12/24 05:57:12;;;;;;;;;;;6.70;89.00;;;;;;5008590;28;20003;-62
2021/12/24 05:59:37;;;;;;;;;;;6.70;89.00;;;;;;5022263;28;19913;-63
2021/12/24 06:02:03;;;;;;;;;;;6.70;89.10;;;;;;4989710;28;19932;-63
2021/12/24 06:04:28;;;;;;;;;;;6.70;89.20;;;;;;5021340;28;19999;-63
2021/12/24 06:06:54;;;;;;;;;;;6.70;89.10;;;;;;4991374;28;20501;-63
2021/12/24 06:09:20;;;;;;;;;;;6.70;89.10;;;;;;5006762;28;19910;-62
2021/12/24 06:11:45;;;;;;;;;;;6.70;89.10;;;;;;4991232;28;19920;-62
2021/12/24 06:14:12;;;;;;;;;;;6.70;89.10;;;;;;5004711;28;19970;-62
2021/12/24 06:16:46;;;;;;;;;;;6.70;89.10;;;;;;5022450;28;19909;-62
2021/12/24 06:19:12;;;;;;;;;;;6.80;89.20;;;;;;5007658;28;19959;-62
2021/12/24 06:21:37;;;;;;;;;;;6.70;89.10;;;;;;5006872;28;20004;-62
2021/12/24 06:24:03;;;;;;;;;;;6.70;89.10;;;;;;5007051;28;20055;-62
2021/12/24 06:26:28;;;;;;;;;;;6.80;89.00;;;;;;4989854;28;19917;-62
2021/12/24 06:28:54;;;;;;;;;;;6.80;88.90;;;;;;5005064;28;19913;-63
2021/12/24 06:31:19;;;;;;;;;;;6.80;88.90;;;;;;5006258;28;20003;-63
2021/12/24 06:33:45;;;;;;;;;;;6.80;88.90;;;;;;5006131;28;20289;-62
2021/12/24 06:36:11;;;;;;;;;;;6.80;89.00;;;;;;4990017;28;19917;-62
2021/12/24 06:38:37;;;;;;;;;;;6.80;88.80;;;;;;5021907;28;20039;-62
2021/12/24 06:41:02;;;;;;;;;;;6.80;88.80;;;;;;4990292;28;20301;-62
2021/12/24 06:43:28;;;;;;;;;;;6.80;88.90;;;;;;5021463;28;19909;-62
2021/12/24 06:45:54;;;;;;;;;;;6.80;89.50;;;;;;5001793;28;20003;-62
2021/12/24 06:48:20;;;;;;;;;;;6.80;88.80;;;;;;5025542;28;20067;-63
2021/12/24 06:50:45;;;;;;;;;;;6.80;88.80;;;;;;5021990;28;19956;-63
2021/12/24 06:53:11;;;;;;;;;;;6.80;88.90;;;;;;5022907;28;19913;-63
2021/12/24 06:55:36;;;;;;;;;;;6.80;88.90;;;;;;5021764;28;20368;-63
2021/12/24 06:58:02;;;;;;;;;;;6.80;89.00;;;;;;4989363;28;19967;-62
2021/12/24 07:00:27;;;;;;;;;;;6.80;89.00;;;;;;5004595;28;19931;-63
2021/12/24 07:02:52;;;;;;;;;;;6.80;89.00;;;;;;5005021;28;19913;-62
2021/12/24 07:05:18;;;;;;;;;;;6.80;89.10;;;;;;5006406;28;19913;-62
2021/12/24 07:07:43;;;;;;;;;;;6.80;89.30;;;;;;5006586;28;19928;-63
2021/12/24 07:10:09;;;;;;;;;;;6.80;89.30;;;;;;5003370;28;19917;-63
2021/12/24 07:12:35;;;;;;;;;;;6.80;89.50;;;;;;5005047;28;20439;-62
2021/12/24 07:15:00;;;;;;;;;;;6.80;89.60;;;;;;4986790;28;19917;-62
2021/12/24 07:17:26;;;;;;;;;;;6.80;89.80;;;;;;5006331;28;19909;-63
2021/12/24 07:19:51;;;;;;;;;;;6.80;89.80;;;;;;5002886;28;19956;-62
2021/12/24 07:22:18;;;;;;;;;;;6.80;89.80;;;;;;5006076;28;19925;-62
2021/12/24 07:24:44;;;;;;;;;;;6.80;89.70;;;;;;5004554;28;19924;-62
2021/12/24 07:27:09;;;;;;;;;;;6.80;89.80;;;;;;5005751;28;19913;-62
2021/12/24 07:29:35;;;;;;;;;;;6.80;89.90;;;;;;5005192;28;19951;-62
2021/12/24 07:32:00;;;;;;;;;;;6.80;90.20;;;;;;5002609;28;20415;-63
2021/12/24 07:34:25;;;;;;;;;;;6.80;90.00;;;;;;5005329;28;19968;-63
2021/12/24 07:36:51;;;;;;;;;;;6.80;90.00;;;;;;5005896;28;19910;-63
2021/12/24 07:39:16;;;;;;;;;;;6.80;90.00;;;;;;5020992;28;19909;-62
2021/12/24 07:41:42;;;;;;;;;;;6.80;90.00;;;;;;5021735;28;20307;-62
2021/12/24 07:44:08;;;;;;;;;;;6.80;90.00;;;;;;4988745;28;19936;-62
2021/12/24 07:46:43;;;;;;;;;;;6.80;90.00;;;;;;5005107;28;20423;-62
2021/12/24 07:49:19;;;;;;;;;;;6.80;90.00;;;;;;5007346;28;19913;-62
2021/12/24 07:54:50;;;;;;;;;;;6.80;90.00;;;;;;4998477;28;19982;-62
2021/12/24 07:57:16;;;;;;;;;;;6.80;90.00;;;;;;4985168;28;19917;-62
2021/12/24 07:59:42;;;;;;;;;;;6.80;90.00;;;;;;5000002;28;19920;-62
2021/12/24 08:02:09;;;;;;;;;;;6.80;89.90;;;;;;5005496;28;19917;-63
2021/12/24 08:04:35;;;;;;;;;;;6.80;90.00;;;;;;5025178;28;20000;-63
2021/12/24 08:07:01;;;;;;;;;;;6.80;89.90;;;;;;5010147;28;19996;-62
2021/12/24 08:09:26;;;;;;;;;;;6.80;90.00;;;;;;4992615;28;20024;-62
2021/12/24 08:11:52;;;;;;;;;;;6.80;90.00;;;;;;4991319;28;19979;-62
2021/12/24 08:14:17;;;;;;;;;;;6.80;90.00;;;;;;5004825;28;20199;-62
2021/12/24 08:16:44;;;;;;;;;;;6.80;90.00;;;;;;5025288;28;19924;-62
2021/12/24 08:19:10;;;;;;;;;;;6.90;90.00;;;;;;5024320;28;19957;-62
2021/12/24 08:21:35;;;;;;;;;;;6.90;90.00;;;;;;5009892;28;20379;-62
2021/12/24 08:24:00;;;;;;;;;;;6.90;89.90;;;;;;5023397;28;19917;-62
2021/12/24 08:26:29;;;;;;;;;;;6.90;89.90;;;;;;5008962;28;20008;-62
2021/12/24 08:28:54;;;;;;;;;;;6.90;89.80;;;;;;5007465;28;20083;-62
2021/12/24 08:31:20;;;;;;;;;;;6.90;89.70;;;;;;4991991;28;20481;-62
2021/12/24 08:33:45;;;;;;;;;;;6.90;89.70;;;;;;5025687;28;19921;-62
2021/12/24 08:36:11;;;;;;;;;;;6.90;89.70;;;;;;5005609;28;20265;-62
2021/12/24 08:38:36;;;;;;;;;;;7.00;89.70;;;;;;5008366;28;19925;-62
2021/12/24 08:41:02;;;;;;;;;;;6.90;89.70;;;;;;4992325;28;19921;-62
2021/12/24 08:43:28;;;;;;;;;;;6.90;89.50;;;;;;5005243;28;19922;-63
2021/12/24 08:45:53;;;;;;;;;;;6.90;89.60;;;;;;5005313;28;19941;-62
2021/12/24 08:48:19;;;;;;;;;;;7.00;89.60;;;;;;4990207;28;19913;-63
2021/12/24 08:50:44;;;;;;;;;;;7.00;89.60;;;;;;5007466;28;20621;-62
2021/12/24 08:53:10;;;;;;;;;;;7.00;89.50;;;;;;5023468;28;19928;-62
2021/12/24 08:55:36;;;;;;;;;;;7.00;89.40;;;;;;5007840;28;20383;-62
2021/12/24 08:58:02;;;;;;;;;;;7.00;89.50;;;;;;5024053;28;19990;-62
2021/12/24 09:00:28;;;;;;;;;;;7.00;89.40;;;;;;5026068;28;19917;-63
2021/12/24 09:02:53;;;;;;;;;;;7.10;89.40;;;;;;5009792;28;19913;-62
2021/12/24 09:05:20;;;;;;;;;;;7.10;89.40;;;;;;4994039;28;20206;-62
2021/12/24 09:07:46;;;;;;;;;;;7.10;89.50;;;;;;5009344;28;20284;-62
2021/12/24 09:10:11;;;;;;;;;;;7.10;89.40;;;;;;5009919;28;19916;-62
2021/12/24 09:12:37;;;;;;;;;;;7.10;89.40;;;;;;5023528;28;20347;-62
2021/12/24 09:15:03;;;;;;;;;;;7.10;89.30;;;;;;4989874;28;20170;-62
2021/12/24 09:17:29;;;;;;;;;;;7.10;89.20;;;;;;5025234;28;20001;-62
2021/12/24 09:19:55;;;;;;;;;;;7.10;89.20;;;;;;5009754;28;19913;-63
2021/12/24 09:22:28;;;;;;;;;;;7.20;89.20;;;;;;5008625;28;20268;-62
2021/12/24 09:24:55;;;;;;;;;;;7.20;89.10;;;;;;5007185;28;20289;-62
2021/12/24 09:27:20;;;;;;;;;;;7.20;89.00;;;;;;5009623;28;19976;-62
2021/12/24 09:29:46;;;;;;;;;;;7.20;89.10;;;;;;5024775;28;20414;-62
2021/12/24 09:32:11;;;;;;;;;;;7.20;89.10;;;;;;4992684;28;19909;-62
2021/12/24 09:34:36;;;;;;;;;;;7.30;89.20;;;;;;4992329;28;20047;-62
2021/12/24 09:37:02;;;;;;;;;;;7.30;89.20;;;;;;4993615;28;20376;-63
2021/12/24 09:39:27;;;;;;;;;;;7.30;89.20;;;;;;5007920;28;19909;-62
2021/12/24 09:41:53;;;;;;;;;;;7.40;89.30;;;;;;5008567;28;19965;-62
2021/12/24 09:44:18;;;;;;;;;;;7.40;89.40;;;;;;5008895;28;19917;-63
2021/12/24 09:46:44;;;;;;;;;;;7.40;89.70;;;;;;5008928;28;19910;-62
2021/12/24 09:49:10;;;;;;;;;;;7.50;90.00;;;;;;5007427;28;19924;-62
2021/12/24 09:51:37;;;;;;;;;;;7.50;90.00;;;;;;5007313;28;19924;-62
2021/12/24 09:54:02;;;;;;;;;;;7.50;90.20;;;;;;5023898;28;19913;-62
2021/12/24 09:56:28;;;;;;;;;;;7.80;90.10;;;;;;5023886;28;20691;-62
2021/12/24 09:58:54;;;;;;;;;;;7.60;90.10;;;;;;4992474;28;19918;-62
2021/12/24 10:01:29;;;;;;;;;;;7.60;90.10;;;;;;4992411;28;19968;-63
2021/12/24 10:04:02;;;;;;;;;;;7.60;90.20;;;;;;5025307;28;19917;-63
2021/12/24 10:06:28;;;;;;;;;;;7.70;90.20;;;;;;5006648;28;19931;-62
2021/12/24 10:09:09;;;;;;;;;;;7.70;90.30;;;;;;5005541;28;20019;-63
2021/12/24 10:11:55;;;;;;;;;;;7.70;90.40;;;;;;5023157;28;20411;-63
2021/12/24 10:14:21;;;;;;;;;;;7.70;90.40;;;;;;5005513;28;19921;-62
2021/12/24 10:16:47;;;;;;;;;;;7.80;90.50;;;;;;4991561;28;20427;-62
2021/12/24 10:19:14;;;;;;;;;;;7.80;90.60;;;;;;5022029;28;19914;-62
2021/12/24 10:21:40;;;;;;;;;;;7.80;90.60;;;;;;5004143;28;19959;-63
2021/12/24 10:24:08;;;;;;;;;;;7.80;90.60;;;;;;4990192;28;19953;-63
2021/12/24 10:26:34;;;;;;;;;;;7.90;90.70;;;;;;5022396;28;19935;-62
2021/12/24 10:29:07;;;;;;;;;;;7.90;90.70;;;;;;5026213;28;19921;-63
2021/12/24 10:31:35;;;;;;;;;;;7.90;90.70;;;;;;5002688;28;19914;-63
2021/12/24 10:34:11;;;;;;;;;;;8.00;90.70;;;;;;5021916;28;19924;-62
2021/12/24 10:36:49;;;;;;;;;;;8.00;90.80;;;;;;5022350;28;20281;-63
2021/12/24 10:39:38;;;;;;;;;;;8.00;90.70;;;;;;4989861;28;19939;-63
2021/12/24 10:42:14;;;;;;;;;;;8.00;90.60;;;;;;5024526;28;19940;-62
2021/12/24 10:44:40;;;;;;;;;;;8.10;90.70;;;;;;5007316;28;20256;-63
2021/12/24 10:47:12;;;;;;;;;;;8.10;90.70;;;;;;5007091;28;19913;-62
2021/12/24 10:54:54;;;;;;;;;;;8.10;90.80;;;;;;5007248;28;19910;-62
2021/12/24 10:57:23;;;;;;;;;;;8.20;90.80;;;;;;5022960;28;19924;-63
2021/12/24 10:59:49;;;;;;;;;;;8.30;90.80;;;;;;4990021;28;20039;-62
2021/12/24 11:02:14;;;;;;;;;;;8.20;90.70;;;;;;5006016;28;20028;-62
2021/12/24 11:04:40;;;;;;;;;;;8.30;90.80;;;;;;5005726;28;19913;-62
2021/12/24 11:07:41;;;;;;;;;;;8.30;90.80;;;;;;4992230;28;19940;-62
2021/12/24 11:10:12;;;;;;;;;;;8.30;90.70;;;;;;4962738;28;19969;-62
2021/12/24 11:12:47;;;;;;;;;;;8.40;90.70;;;;;;5014019;28;20376;-62
2021/12/24 11:15:32;;;;;;;;;;;8.40;90.70;;;;;;5005501;28;19913;-62
2021/12/24 11:18:08;;;;;;;;;;;8.40;90.70;;;;;;5007225;28;19917;-63
2021/12/24 11:20:33;;;;;;;;;;;8.40;90.60;;;;;;5021085;28;20632;-63
2021/12/24 11:23:00;;;;;;;;;;;8.40;90.60;;;;;;5016142;28;19917;-62
2021/12/24 11:25:26;;;;;;;;;;;8.50;90.50;;;;;;5003787;28;19917;-62
2021/12/24 11:27:52;;;;;;;;;;;8.50;90.50;;;;;;5018712;28;20352;-63
2021/12/24 11:30:18;;;;;;;;;;;8.60;90.50;;;;;;5002301;28;19939;-61
2021/12/24 11:32:43;;;;;;;;;;;8.60;90.50;;;;;;5005730;28;19928;-61
2021/12/24 11:35:09;;;;;;;;;;;8.50;90.60;;;;;;5006110;28;19916;-61
2021/12/24 11:37:34;;;;;;;;;;;8.50;90.50;;;;;;5007315;28;19956;-61
2021/12/24 11:40:01;;;;;;;;;;;8.60;90.50;;;;;;4992638;28;19923;-62
2021/12/24 11:42:27;;;;;;;;;;;8.60;90.40;;;;;;5009485;28;19949;-61
2021/12/24 11:44:53;;;;;;;;;;;8.60;90.30;;;;;;5010244;28;19921;-62
2021/12/24 11:47:18;;;;;;;;;;;8.60;90.40;;;;;;5026297;28;19975;-61
2021/12/24 11:49:44;;;;;;;;;;;8.70;90.50;;;;;;4993194;28;19913;-62
2021/12/24 11:52:09;;;;;;;;;;;8.70;90.70;;;;;;5008115;28;20457;-61
2021/12/24 11:54:35;;;;;;;;;;;8.70;90.60;;;;;;5003381;28;19925;-62
2021/12/24 11:57:00;;;;;;;;;;;8.70;90.50;;;;;;5009962;28;20031;-61
2021/12/24 11:59:36;;;;;;;;;;;8.70;90.50;;;;;;5026192;28;20383;-61
2021/12/24 12:02:01;;;;;;;;;;;8.70;90.40;;;;;;5008210;28;20085;-61
2021/12/24 12:04:26;;;;;;;;;;;8.70;90.30;;;;;;4990906;28;19933;-61
2021/12/24 12:06:52;;;;;;;;;;;8.70;90.30;;;;;;4992986;28;20445;-61
2021/12/24 12:09:17;;;;;;;;;;;8.80;90.20;;;;;;4993967;28;19921;-61
2021/12/24 12:11:43;;;;;;;;;;;8.80;90.20;;;;;;5005848;28;19925;-61
2021/12/24 12:14:15;;;;;;;;;;;8.80;90.10;;;;;;4990936;28;20598;-60
2021/12/24 12:16:40;;;;;;;;;;;8.80;90.10;;;;;;5025534;28;19979;-60
2021/12/24 12:19:23;;;;;;;;;;;8.90;90.10;;;;;;5024386;28;19921;-60
2021/12/24 12:22:11;;;;;;;;;;;8.90;90.20;;;;;;5010093;28;19913;-60
2021/12/24 12:27:17;;;;;;;;;;;8.90;89.80;;;;;;5027239;28;19917;-60
2021/12/24 12:29:44;;;;;;;;;;;8.90;89.90;;;;;;4991041;28;19917;-60
2021/12/24 12:32:12;;;;;;;;;;;8.90;90.00;;;;;;5025175;28;19948;-60
2021/12/24 12:34:43;;;;;;;;;;;9.00;90.00;;;;;;5025086;28;19925;-61
2021/12/24 12:37:15;;;;;;;;;;;9.00;90.00;;;;;;5027357;28;19941;-61
2021/12/24 12:39:40;;;;;;;;;;;9.00;89.70;;;;;;5024894;28;19928;-61
2021/12/24 12:42:06;;;;;;;;;;;9.00;89.70;;;;;;4990623;28;19920;-60
2021/12/24 12:44:32;;;;;;;;;;;9.00;89.80;;;;;;4993963;28;19917;-61
2021/12/24 12:47:14;;;;;;;;;;;9.00;89.60;;;;;;5027347;28;19920;-59
2021/12/24 12:49:39;;;;;;;;;;;9.10;89.60;;;;;;5007959;28;20367;-60
2021/12/24 12:52:07;;;;;;;;;;;9.10;89.70;;;;;;4992220;28;19920;-64
2021/12/24 12:54:35;;;;;;;;;;;9.10;89.70;;;;;;5007749;28;20003;-63
2021/12/24 12:57:19;;;;;;;;;;;9.10;89.60;;;;;;5026410;28;19928;-61
2021/12/24 13:00:04;;;;;;;;;;;9.10;89.60;;;;;;5023557;28;19914;-61
2021/12/24 13:02:48;;;;;;;;;;;9.10;89.60;;;;;;5024134;28;19929;-61
2021/12/24 13:05:13;;;;;;;;;;;9.20;89.40;;;;;;5023059;28;20472;-61
2021/12/24 13:07:39;;;;;;;;;;;9.20;89.60;;;;;;4991378;28;19960;-61
2021/12/24 13:10:04;;;;;;;;;;;9.20;89.60;;;;;;5008950;28;19925;-61
2021/12/24 13:12:30;;;;;;;;;;;9.20;89.60;;;;;;5008870;28;19921;-62
2021/12/24 13:14:58;;;;;;;;;;;9.20;89.40;;;;;;4991984;28;20428;-62
2021/12/24 13:17:30;;;;;;;;;;;9.20;89.20;;;;;;4992375;28;19917;-61
2021/12/24 13:20:08;;;;;;;;;;;9.20;89.40;;;;;;5006500;28;19921;-61
2021/12/24 13:22:36;;;;;;;;;;;9.20;89.50;;;;;;5023751;28;19921;-61
2021/12/24 13:25:13;;;;;;;;;;;9.30;89.60;;;;;;4992067;28;20345;-61
2021/12/24 13:27:40;;;;;;;;;;;9.30;89.70;;;;;;5025196;28;20357;-61
2021/12/24 13:30:06;;;;;;;;;;;9.30;89.80;;;;;;5019115;28;20389;-61
2021/12/24 13:32:36;;;;;;;;;;;9.30;89.90;;;;;;5006395;28;20383;-61
2021/12/24 13:35:01;;;;;;;;;;;9.30;90.00;;;;;;4993580;28;19913;-61
2021/12/24 13:37:29;;;;;;;;;;;9.30;90.10;;;;;;5006949;28;19917;-61
2021/12/24 13:39:55;;;;;;;;;;;9.30;90.10;;;;;;4990449;28;19940;-61
2021/12/24 13:42:20;;;;;;;;;;;9.30;90.20;;;;;;5007199;28;19914;-61
2021/12/24 13:44:48;;;;;;;;;;;9.40;90.50;;;;;;5021332;28;20055;-61
2021/12/24 13:47:22;;;;;;;;;;;9.40;90.30;;;;;;4990911;28;20571;-61
2021/12/24 13:55:24;;;;;;;;;;;9.40;90.50;;;;;;5009833;28;19975;-61
2021/12/24 13:57:54;;;;;;;;;;;9.40;90.50;;;;;;4991398;28;20387;-61
2021/12/24 14:00:20;;;;;;;;;;;9.40;90.60;;;;;;5007366;28;20031;-61
2021/12/24 14:02:52;;;;;;;;;;;9.40;90.70;;;;;;5021111;28;20015;-62
2021/12/24 14:05:19;;;;;;;;;;;9.40;90.80;;;;;;5023705;28;19920;-61
2021/12/24 14:07:46;;;;;;;;;;;9.50;90.80;;;;;;5006133;28;20099;-61
2021/12/24 14:10:21;;;;;;;;;;;9.40;90.90;;;;;;4995047;28;19964;-61
2021/12/24 14:12:47;;;;;;;;;;;9.40;91.10;;;;;;5019535;28;19921;-61
2021/12/24 14:15:14;;;;;;;;;;;9.40;91.00;;;;;;4988878;28;19924;-61
2021/12/24 14:23:28;;;;;;;;;;;9.40;91.10;;;;;;4979818;28;19980;-61
2021/12/24 14:25:57;;;;;;;;;;;9.40;91.10;;;;;;4991093;28;19936;-61
2021/12/24 14:28:24;;;;;;;;;;;9.40;91.10;;;;;;5025415;28;19913;-61
2021/12/24 14:30:56;;;;;;;;;;;9.40;91.10;;;;;;5007425;28;20711;-61
2021/12/24 14:33:22;;;;;;;;;;;9.40;91.10;;;;;;4990551;28;19971;-61
2021/12/24 14:35:52;;;;;;;;;;;9.40;91.20;;;;;;5007660;28;20292;-61
2021/12/24 14:38:18;;;;;;;;;;;9.40;91.20;;;;;;4991693;28;19921;-61
2021/12/24 14:40:43;;;;;;;;;;;9.40;91.20;;;;;;5008229;28;20028;-61
2021/12/24 14:43:10;;;;;;;;;;;9.40;91.20;;;;;;4993115;28;19921;-61
2021/12/24 14:45:37;;;;;;;;;;;9.30;91.20;;;;;;5007631;28;19913;-61
2021/12/24 14:48:05;;;;;;;;;;;9.40;91.40;;;;;;5006338;28;19984;-61
2021/12/24 14:50:31;;;;;;;;;;;9.40;91.40;;;;;;5025755;28;19916;-61
2021/12/24 14:53:15;;;;;;;;;;;9.40;91.40;;;;;;5006386;28;20015;-61
2021/12/24 14:55:45;;;;;;;;;;;9.40;91.50;;;;;;5025109;28;19920;-62
2021/12/24 14:58:10;;;;;;;;;;;9.40;91.40;;;;;;5007748;28;20015;-61
2021/12/24 15:00:38;;;;;;;;;;;9.40;91.40;;;;;;4989502;28;20351;-61
2021/12/24 15:03:04;;;;;;;;;;;9.40;91.40;;;;;;5007651;28;19921;-61
2021/12/24 15:05:34;;;;;;;;;;;9.40;91.40;;;;;;5008170;28;19913;-61
2021/12/24 15:08:00;;;;;;;;;;;9.40;91.40;;;;;;5022455;28;20355;-60
2021/12/24 15:10:26;;;;;;;;;;;9.40;91.40;;;;;;4990984;28;19913;-60
2021/12/24 15:12:59;;;;;;;;;;;9.40;91.40;;;;;;5005901;28;19925;-61
2021/12/24 15:15:28;;;;;;;;;;;9.40;91.40;;;;;;5008759;28;19909;-60
2021/12/24 15:17:54;;;;;;;;;;;9.40;91.50;;;;;;5024163;28;20027;-59
2021/12/24 15:20:20;;;;;;;;;;;9.40;91.50;;;;;;5024422;28;19995;-60
2021/12/24 15:22:46;;;;;;;;;;;9.40;91.60;;;;;;5023205;28;19913;-60
2021/12/24 15:25:11;;;;;;;;;;;9.40;91.60;;;;;;5022665;28;19968;-60
2021/12/24 15:27:38;;;;;;;;;;;9.40;91.70;;;;;;5023203;28;19923;-59
2021/12/24 15:30:04;;;;;;;;;;;9.40;91.80;;;;;;5006811;28;20300;-60
2021/12/24 15:32:30;;;;;;;;;;;9.40;91.80;;;;;;5005784;28;19913;-60
2021/12/24 15:34:55;;;;;;;;;;;9.40;91.80;;;;;;5004786;28;19972;-60
2021/12/24 15:37:21;;;;;;;;;;;9.40;92.20;;;;;;5004269;28;20349;-61
2021/12/24 15:39:46;;;;;;;;;;;9.40;91.90;;;;;;5022618;28;19910;-60
2021/12/24 15:42:12;;;;;;;;;;;9.40;91.80;;;;;;4990188;28;19928;-61
2021/12/24 15:44:42;;;;;;;;;;;9.30;91.80;;;;;;4987100;28;19975;-60
2021/12/24 15:47:08;;;;;;;;;;;9.30;91.80;;;;;;5004627;28;19913;-61
2021/12/24 15:49:33;;;;;;;;;;;9.30;91.90;;;;;;5003694;28;19940;-60
2021/12/24 15:51:59;;;;;;;;;;;9.30;91.80;;;;;;4986231;28;19921;-61
2021/12/24 15:54:24;;;;;;;;;;;9.30;91.90;;;;;;5004974;28;19936;-60
2021/12/24 15:56:50;;;;;;;;;;;9.30;91.90;;;;;;4988476;28;20278;-60
2021/12/24 15:59:15;;;;;;;;;;;9.30;91.90;;;;;;4989277;28;19909;-60
2021/12/24 16:01:41;;;;;;;;;;;9.30;91.80;;;;;;5004769;28;19928;-60
2021/12/24 16:04:06;;;;;;;;;;;9.30;91.80;;;;;;5022613;28;19948;-60
2021/12/24 16:06:31;;;;;;;;;;;9.30;91.80;;;;;;5004907;28;19950;-60
2021/12/24 16:08:57;;;;;;;;;;;9.30;91.90;;;;;;5006312;28;19913;-60
2021/12/24 16:11:22;;;;;;;;;;;9.30;92.00;;;;;;5005005;28;19917;-60
2021/12/24 16:13:48;;;;;;;;;;;9.20;92.00;;;;;;5003964;28;20328;-61
2021/12/24 16:16:15;;;;;;;;;;;9.20;92.10;;;;;;5004163;28;19917;-60
2021/12/24 16:18:40;;;;;;;;;;;9.20;92.10;;;;;;5005635;28;20026;-60
2021/12/24 16:21:06;;;;;;;;;;;9.20;92.10;;;;;;5004079;28;19943;-61
2021/12/24 16:23:33;;;;;;;;;;;9.20;92.20;;;;;;5021852;28;20324;-60
2021/12/24 16:25:58;;;;;;;;;;;9.20;92.20;;;;;;5023348;28;20305;-60
2021/12/24 16:28:26;;;;;;;;;;;9.20;92.20;;;;;;5023313;28;19917;-60
2021/12/24 16:30:51;;;;;;;;;;;9.20;92.20;;;;;;5008562;28;19916;-60